This is the latest recevied weather packets stored in our database for station/object KO5MO-11. If no packets are shown the sender has not sent any weather packets the latest 10 day(s).
| Time | Temp. | Humidity | Pressure | Rain* | Wind** | Luminosity | Snow |
|---|---|---|---|---|---|---|---|
| 1777686872 | 23.89° C | 37% | 1006.6 hPa | - | - | 755 W/m² | - |
| 1777686272 | 25° C | 37% | 1006.5 hPa | - | - | 771 W/m² | - |
| 1777685672 | 25.56° C | 40% | 1006.6 hPa | - | - | 787 W/m² | - |
| 1777685072 | 23.89° C | 41% | 1006.6 hPa | - | - | 757 W/m² | - |
| 1777684472 | 23.89° C | 38% | 1006.6 hPa | - | - | 752 W/m² | - |
| 1777683872 | 23.89° C | 38% | 1006.6 hPa | - | - | 755 W/m² | - |
| 1777683272 | 24.44° C | 37% | 1006.7 hPa | - | - | 762 W/m² | - |
| 1777682672 | 25.56° C | 37% | 1006.6 hPa | - | - | 789 W/m² | - |
| 1777682072 | 25° C | 45% | 1006.7 hPa | - | - | 774 W/m² | - |
| 1777681472 | 23.33° C | 38% | 1006.6 hPa | - | - | 747 W/m² | - |
| 1777680872 | 23.89° C | 38% | 1006.7 hPa | - | - | 752 W/m² | - |
| 1777680272 | 24.44° C | 38% | 1006.7 hPa | - | - | 760 W/m² | - |
| 1777679672 | 25.56° C | 37% | 1006.8 hPa | - | - | 781 W/m² | - |
| 1777679072 | 25° C | 44% | 1006.8 hPa | - | - | 779 W/m² | - |
| 1777678472 | 23.33° C | 38% | 1006.8 hPa | - | - | 749 W/m² | - |
| 1777677872 | 23.89° C | 38% | 1006.8 hPa | - | - | 751 W/m² | - |
| 1777677272 | 23.89° C | 37% | 1006.8 hPa | - | - | 758 W/m² | - |
| 1777676672 | 24.44° C | 37% | 1006.9 hPa | - | - | 764 W/m² | - |
| 1777676072 | 26.11° C | 37% | 1007.1 hPa | - | - | 797 W/m² | - |
| 1777675472 | 25° C | 45% | 1007.2 hPa | - | - | 773 W/m² | - |
| 1777674872 | 23.89° C | 38% | 1007.3 hPa | - | - | 751 W/m² | - |
| 1777674273 | 23.89° C | 38% | 1007.4 hPa | - | - | 751 W/m² | - |
| 1777673672 | 23.89° C | 38% | 1007.6 hPa | - | - | 755 W/m² | - |
| 1777673072 | 24.44° C | 38% | 1007.7 hPa | - | - | 763 W/m² | - |
| 1777672472 | 26.11° C | 38% | 1007.8 hPa | - | - | 798 W/m² | - |
* Rain since midnight (hover to see other rain measurements)
** Current wind speed in m/s (hover to see current wind gust speed)